createdAt,value
2023-01-31T00:01:29.774Z,20.40
2023-01-31T00:04:16.907Z,18.05
2023-01-31T00:07:04.115Z,19.65
2023-01-31T00:09:53.676Z,21.30
2023-01-31T00:12:40.908Z,22.77
2023-01-31T00:15:28.291Z,21.40
2023-01-31T00:18:15.427Z,22.77
2023-01-31T00:21:29.629Z,22.05
2023-01-31T00:24:19.260Z,22.15
2023-01-31T00:27:07.683Z,22.52
2023-01-31T00:29:54.731Z,18.05
2023-01-31T00:32:41.827Z,19.48
2023-01-31T00:35:30.703Z,17.83
2023-01-31T00:38:20.102Z,23.70
2023-01-31T00:41:07.357Z,21.70
2023-01-31T00:43:55.333Z,19.83
2023-01-31T00:46:42.534Z,16.20
2023-01-31T00:49:29.917Z,19.35
2023-01-31T00:52:17.176Z,21.98
2023-01-31T00:55:04.538Z,23.73
2023-01-31T00:57:51.766Z,25.60
2023-01-31T01:00:41.182Z,24.77
2023-01-31T01:03:30.854Z,23.95
2023-01-31T01:06:24.188Z,21.38
2023-01-31T01:09:11.535Z,20.38
2023-01-31T01:11:58.665Z,25.50
2023-01-31T01:14:45.937Z,21.20
2023-01-31T01:17:33.669Z,26.88
2023-01-31T01:20:20.967Z,24.02
2023-01-31T01:23:08.174Z,22.92
2023-01-31T01:25:55.367Z,20.98
2023-01-31T01:28:45.173Z,26.35
2023-01-31T01:31:32.790Z,16.67
2023-01-31T01:34:20.108Z,25.67
2023-01-31T01:37:20.102Z,18.92
2023-01-31T01:40:12.293Z,18.48
2023-01-31T01:42:59.460Z,26.83
2023-01-31T01:45:47.083Z,27.45
2023-01-31T01:48:35.461Z,27.77
2023-01-31T01:51:23.705Z,21.70
2023-01-31T01:54:18.537Z,21.55
2023-01-31T01:57:07.369Z,29.73
2023-01-31T02:00:13.969Z,31.05
2023-01-31T02:03:04.811Z,31.55
2023-01-31T02:06:04.408Z,27.17
2023-01-31T02:08:52.467Z,31.80
2023-01-31T02:11:42.775Z,26.42
2023-01-31T02:14:36.915Z,26.13
2023-01-31T02:17:24.528Z,29.70
2023-01-31T02:20:35.993Z,33.15
2023-01-31T02:23:45.076Z,24.50
2023-01-31T02:27:03.575Z,25.77
2023-01-31T02:30:18.278Z,28.40
2023-01-31T02:33:39.543Z,24.10
2023-01-31T02:36:41.700Z,26.85
2023-01-31T02:39:44.218Z,25.90
2023-01-31T02:42:56.194Z,24.48
2023-01-31T02:46:07.117Z,22.37
2023-01-31T02:49:03.128Z,30.50
2023-01-31T02:52:12.349Z,32.35
2023-01-31T02:55:43.676Z,26.65
2023-01-31T02:58:34.770Z,28.67
2023-01-31T03:01:28.058Z,27.45
2023-01-31T03:04:15.925Z,21.05
2023-01-31T03:07:17.219Z,23.92
2023-01-31T03:10:19.605Z,21.98
2023-01-31T03:13:25.557Z,23.88
2023-01-31T03:16:45.877Z,28.80
2023-01-31T03:20:11.873Z,27.92
2023-01-31T03:23:08.300Z,31.65
2023-01-31T03:26:00.361Z,31.45
2023-01-31T03:28:54.878Z,28.73
2023-01-31T03:31:49.447Z,21.20
2023-01-31T03:34:37.457Z,26.48
2023-01-31T03:37:57.549Z,23.92
2023-01-31T03:40:57.359Z,30.92
2023-01-31T03:44:09.374Z,23.25
2023-01-31T03:47:02.809Z,21.30
2023-01-31T03:49:51.772Z,22.95
2023-01-31T03:52:43.969Z,23.60
2023-01-31T03:55:54.705Z,20.17
2023-01-31T03:58:50.972Z,22.17
2023-01-31T04:01:44.966Z,26.95
2023-01-31T04:04:51.862Z,22.83
2023-01-31T04:07:40.262Z,24.25
2023-01-31T04:10:35.724Z,19.50
2023-01-31T04:13:22.927Z,23.13
2023-01-31T04:16:10.193Z,24.88
2023-01-31T04:18:59.524Z,35.03
2023-01-31T04:21:46.890Z,37.05
2023-01-31T04:24:34.225Z,27.23
2023-01-31T04:27:22.759Z,36.38
2023-01-31T04:30:11.948Z,25.27
2023-01-31T04:32:59.400Z,32.13
2023-01-31T04:35:46.694Z,22.50
2023-01-31T04:38:34.184Z,31.77
2023-01-31T04:41:21.409Z,25.38
2023-01-31T04:44:08.540Z,26.30
2023-01-31T04:46:56.274Z,30.67
2023-01-31T04:49:44.344Z,26.15
2023-01-31T04:52:33.047Z,23.80
2023-01-31T04:55:20.712Z,38.05
2023-01-31T04:58:08.729Z,32.67
2023-01-31T05:05:18.585Z,27.55
2023-01-31T05:08:06.636Z,20.55
2023-01-31T05:11:03.837Z,29.25
2023-01-31T05:13:54.339Z,20.80
2023-01-31T05:16:50.395Z,26.67
2023-01-31T05:19:37.589Z,26.50
2023-01-31T05:22:25.750Z,24.95
2023-01-31T05:25:13.096Z,26.35
2023-01-31T05:28:00.531Z,27.75
2023-01-31T05:30:47.872Z,33.05
2023-01-31T05:33:37.552Z,37.08
2023-01-31T05:36:29.531Z,34.30
2023-01-31T05:39:19.499Z,24.95
2023-01-31T05:42:09.008Z,29.70
2023-01-31T05:44:57.597Z,25.00
2023-01-31T05:47:47.660Z,34.92
2023-01-31T05:50:35.113Z,34.95
2023-01-31T05:53:25.097Z,27.58
2023-01-31T05:56:14.131Z,28.45
2023-01-31T05:59:02.876Z,32.35
2023-01-31T06:02:39.816Z,30.23
2023-01-31T06:05:29.328Z,31.67
2023-01-31T06:08:15.182Z,26.75
2023-01-31T06:11:11.276Z,32.03
2023-01-31T06:14:01.692Z,29.40
2023-01-31T06:16:54.109Z,38.05
2023-01-31T06:29:03.247Z,34.88
2023-01-31T06:37:59.934Z,26.00
2023-01-31T06:45:13.604Z,35.10
2023-01-31T07:10:43.025Z,45.00
2023-01-31T07:14:44.941Z,33.88
2023-01-31T07:18:01.208Z,40.47
2023-01-31T07:21:06.526Z,30.52
2023-01-31T07:23:56.212Z,29.33
2023-01-31T07:26:46.120Z,36.85
2023-01-31T07:29:34.595Z,35.75
2023-01-31T07:32:23.092Z,33.72
2023-01-31T07:35:16.158Z,33.10
2023-01-31T07:38:05.908Z,39.58
2023-01-31T07:40:53.364Z,35.25
2023-01-31T07:43:43.062Z,44.53
2023-01-31T07:46:32.244Z,31.50
2023-01-31T07:49:22.166Z,33.00
2023-01-31T07:52:09.645Z,34.50
2023-01-31T07:54:59.931Z,36.25
2023-01-31T07:57:47.405Z,31.73
2023-01-31T08:04:20.625Z,43.92
2023-01-31T08:07:10.579Z,31.60
2023-01-31T08:10:13.972Z,23.58
2023-01-31T08:13:03.453Z,24.92
2023-01-31T08:15:59.505Z,28.33
2023-01-31T08:18:50.289Z,30.33
2023-01-31T08:21:37.803Z,23.35
2023-01-31T08:24:26.195Z,31.25
2023-01-31T08:27:23.464Z,26.67
2023-01-31T08:30:12.597Z,26.85
2023-01-31T08:33:21.407Z,21.58
2023-01-31T08:39:49.363Z,25.58
2023-01-31T08:42:49.866Z,26.15
2023-01-31T08:45:37.420Z,18.38
2023-01-31T08:48:29.120Z,25.42
2023-01-31T08:58:51.891Z,23.23
2023-01-31T09:02:26.691Z,16.02
2023-01-31T09:05:34.832Z,19.73
2023-01-31T09:08:35.791Z,24.90
2023-01-31T09:11:42.835Z,20.75
2023-01-31T09:15:23.880Z,18.58
2023-01-31T09:29:22.243Z,15.90
2023-01-31T09:35:43.834Z,19.30
2023-01-31T09:43:02.958Z,12.77
2023-01-31T09:49:44.901Z,19.60
2023-01-31T09:52:50.124Z,19.50
2023-01-31T09:56:36.853Z,20.50
2023-01-31T10:03:55.818Z,16.10
2023-01-31T10:07:57.857Z,20.55
2023-01-31T10:17:59.188Z,25.45
2023-01-31T10:21:05.287Z,20.77
2023-01-31T10:24:00.467Z,13.85
2023-01-31T10:27:47.331Z,11.85
2023-01-31T10:31:11.539Z,14.55
2023-01-31T10:34:11.226Z,20.30
2023-01-31T10:37:44.551Z,13.18
2023-01-31T10:44:39.591Z,9.48
2023-01-31T10:48:07.728Z,11.40
2023-01-31T10:53:03.231Z,18.10
2023-01-31T10:56:08.779Z,9.43
2023-01-31T10:58:34.317Z,11.75
2023-01-31T11:02:31.029Z,14.95
2023-01-31T11:09:57.791Z,9.23
2023-01-31T11:13:40.579Z,13.23
2023-01-31T12:04:51.811Z,10.13
2023-01-31T12:08:29.141Z,6.77
2023-01-31T12:19:05.070Z,13.15
2023-01-31T12:22:32.387Z,9.65
2023-01-31T12:25:40.999Z,9.25
2023-01-31T12:28:39.673Z,14.40
2023-01-31T12:32:10.951Z,11.35
2023-01-31T12:35:30.212Z,12.80
2023-01-31T12:39:04.830Z,16.73
2023-01-31T12:46:29.629Z,11.35
2023-01-31T12:49:54.088Z,14.43
2023-01-31T12:53:30.766Z,14.98
2023-01-31T12:56:47.268Z,9.57
2023-01-31T12:59:55.257Z,13.48
2023-01-31T13:07:30.163Z,11.43
2023-01-31T13:14:27.277Z,9.20
2023-01-31T13:18:06.592Z,12.15
2023-01-31T13:28:50.611Z,14.43
2023-01-31T13:32:01.907Z,14.70
2023-01-31T13:34:54.921Z,16.73
2023-01-31T13:37:47.669Z,9.68
2023-01-31T13:44:56.513Z,14.07
2023-01-31T13:48:14.073Z,14.13
2023-01-31T13:54:58.029Z,15.10
2023-01-31T13:58:07.176Z,10.85
2023-01-31T14:01:27.984Z,17.65
2023-01-31T14:04:15.800Z,14.52
2023-01-31T14:07:14.738Z,13.90
2023-01-31T14:10:25.709Z,11.77
2023-01-31T14:13:32.000Z,11.85
2023-01-31T14:16:46.435Z,11.25
2023-01-31T14:19:52.875Z,12.68
2023-01-31T14:22:44.599Z,13.00
2023-01-31T14:25:44.484Z,17.23
2023-01-31T14:28:43.023Z,13.93
2023-01-31T14:34:58.813Z,10.40
2023-01-31T14:38:19.297Z,11.43
2023-01-31T14:42:00.648Z,11.90
2023-01-31T14:45:00.331Z,8.43
2023-01-31T14:48:33.305Z,10.25
2023-01-31T14:51:41.763Z,13.73
2023-01-31T14:54:46.056Z,14.40
2023-01-31T14:58:16.341Z,15.48
2023-01-31T15:01:24.230Z,8.32
2023-01-31T15:04:41.702Z,11.98
2023-01-31T15:07:37.400Z,14.68
2023-01-31T15:14:55.365Z,12.10
2023-01-31T15:18:06.875Z,13.00
2023-01-31T15:21:05.654Z,10.98
2023-01-31T15:24:04.096Z,17.50
2023-01-31T15:26:57.908Z,8.85
2023-01-31T15:30:25.997Z,15.60
2023-01-31T15:42:08.305Z,20.27
2023-01-31T15:45:17.565Z,17.30
2023-01-31T15:48:30.734Z,10.13
2023-01-31T15:51:23.716Z,12.27
2023-01-31T15:54:21.124Z,10.52
2023-01-31T15:57:18.302Z,9.60
2023-01-31T16:00:10.457Z,8.02
2023-01-31T16:03:05.122Z,26.67
2023-01-31T16:05:59.967Z,12.07
2023-01-31T16:08:52.962Z,11.70
2023-01-31T16:11:40.535Z,12.05
2023-01-31T16:14:33.556Z,10.00
2023-01-31T16:17:24.827Z,10.57
2023-01-31T16:20:34.848Z,13.27
2023-01-31T16:23:27.978Z,12.55
2023-01-31T16:26:27.798Z,10.13
2023-01-31T16:29:21.608Z,14.30
2023-01-31T16:32:33.832Z,8.23
2023-01-31T16:35:27.667Z,10.88
2023-01-31T16:38:28.083Z,15.82
2023-01-31T16:41:47.559Z,11.80
2023-01-31T16:44:42.563Z,12.85
2023-01-31T16:47:50.451Z,12.15
2023-01-31T16:51:02.143Z,11.00
2023-01-31T16:54:14.208Z,11.07
2023-01-31T16:57:06.102Z,8.30
2023-01-31T16:59:54.669Z,11.32
2023-01-31T17:02:42.310Z,16.25
2023-01-31T17:05:56.551Z,10.35
2023-01-31T17:08:46.594Z,11.73
2023-01-31T17:11:42.608Z,13.02
2023-01-31T17:14:33.319Z,9.85
2023-01-31T17:17:22.079Z,10.90
2023-01-31T17:20:24.012Z,9.70
2023-01-31T17:23:14.214Z,12.68
2023-01-31T17:26:02.535Z,11.95
2023-01-31T17:29:00.802Z,11.43
2023-01-31T17:31:49.652Z,13.75
2023-01-31T17:34:49.654Z,11.45
2023-01-31T17:37:38.627Z,11.35
2023-01-31T17:40:55.201Z,11.63
2023-01-31T17:43:46.198Z,12.55
2023-01-31T17:46:35.097Z,15.65
2023-01-31T17:49:24.605Z,13.90
2023-01-31T17:52:13.844Z,9.60
2023-01-31T17:55:01.829Z,14.23
2023-01-31T17:57:49.838Z,10.27
2023-01-31T18:00:41.147Z,18.00
2023-01-31T18:03:30.162Z,14.23
2023-01-31T18:06:18.062Z,17.30
2023-01-31T18:09:16.089Z,13.10
2023-01-31T18:12:09.010Z,13.75
2023-01-31T18:15:00.235Z,19.33
2023-01-31T18:17:47.666Z,16.00
2023-01-31T18:20:42.742Z,13.93
2023-01-31T18:23:35.417Z,17.85
2023-01-31T18:30:02.356Z,13.23
2023-01-31T18:33:32.811Z,14.33
2023-01-31T18:36:37.667Z,19.50
2023-01-31T18:39:25.416Z,15.23
2023-01-31T18:42:15.871Z,12.38
2023-01-31T18:45:05.260Z,15.40
2023-01-31T18:47:55.531Z,12.82
2023-01-31T18:50:43.237Z,10.73
2023-01-31T18:53:39.429Z,21.98
2023-01-31T18:56:27.145Z,14.15
2023-01-31T18:59:14.689Z,16.38
2023-01-31T19:02:02.244Z,18.55
2023-01-31T19:04:50.087Z,13.25
2023-01-31T19:07:39.886Z,13.93
2023-01-31T19:10:27.528Z,12.45
2023-01-31T19:13:18.576Z,11.02
2023-01-31T19:16:09.627Z,13.13
2023-01-31T19:18:57.926Z,15.52
2023-01-31T19:21:48.053Z,15.68
2023-01-31T19:24:40.157Z,16.20
2023-01-31T19:27:28.228Z,11.77
2023-01-31T19:30:22.175Z,12.05
2023-01-31T19:33:10.168Z,15.52
2023-01-31T19:35:57.621Z,10.32
2023-01-31T19:38:45.676Z,11.35
2023-01-31T19:41:33.519Z,15.60
2023-01-31T19:44:24.312Z,11.38
2023-01-31T19:47:13.418Z,13.30
2023-01-31T19:50:01.196Z,13.15
2023-01-31T19:52:49.481Z,11.38
2023-01-31T19:55:37.267Z,17.30
2023-01-31T19:58:33.898Z,13.18
2023-01-31T20:01:24.022Z,15.88
2023-01-31T20:04:13.715Z,20.25
2023-01-31T20:07:01.317Z,19.10
2023-01-31T20:09:58.279Z,20.65
2023-01-31T20:12:48.498Z,13.98
2023-01-31T20:15:40.002Z,13.10
2023-01-31T20:18:28.011Z,15.02
2023-01-31T20:21:20.096Z,17.55
2023-01-31T20:24:14.795Z,21.23
2023-01-31T20:27:19.096Z,12.85
2023-01-31T20:30:09.857Z,19.15
2023-01-31T20:33:00.102Z,14.10
2023-01-31T20:35:48.244Z,17.17
2023-01-31T20:38:38.846Z,13.52
2023-01-31T20:41:27.401Z,17.42
2023-01-31T20:44:20.007Z,13.70
2023-01-31T20:47:07.596Z,15.00
2023-01-31T20:49:55.147Z,13.98
2023-01-31T20:52:43.547Z,14.20
2023-01-31T20:55:34.007Z,18.27
2023-01-31T20:58:23.924Z,16.05
2023-01-31T21:01:12.612Z,13.38
2023-01-31T21:04:05.522Z,13.27
2023-01-31T21:06:54.676Z,13.55
2023-01-31T21:09:43.338Z,14.05
2023-01-31T21:12:30.859Z,11.15
2023-01-31T21:15:18.555Z,12.98
2023-01-31T21:18:07.543Z,12.18
2023-01-31T21:20:55.896Z,12.50
2023-01-31T21:23:44.769Z,13.90
2023-01-31T21:26:32.192Z,16.42
2023-01-31T21:29:20.153Z,13.65
2023-01-31T21:32:07.540Z,15.60
2023-01-31T21:34:55.144Z,12.80
2023-01-31T21:37:42.788Z,11.68
2023-01-31T21:40:30.207Z,12.80
2023-01-31T21:49:37.404Z,14.77
2023-01-31T21:52:30.688Z,17.67
2023-01-31T21:55:18.596Z,14.25
2023-01-31T21:58:06.069Z,15.25
2023-01-31T22:00:54.745Z,13.25
2023-01-31T22:03:45.343Z,15.60
2023-01-31T22:06:43.689Z,14.02
2023-01-31T22:09:31.229Z,12.45
2023-01-31T22:12:18.412Z,13.45
2023-01-31T22:15:09.196Z,13.05
2023-01-31T22:17:56.508Z,14.43
2023-01-31T22:20:43.694Z,16.13
2023-01-31T22:27:24.161Z,13.75
2023-01-31T22:30:16.503Z,19.77
2023-01-31T22:33:04.579Z,14.43
2023-01-31T22:35:52.104Z,14.85
2023-01-31T22:38:41.766Z,13.73
2023-01-31T22:41:29.464Z,16.05
2023-01-31T22:44:16.881Z,15.25
2023-01-31T22:47:04.407Z,15.07
2023-01-31T22:49:51.608Z,18.00
2023-01-31T22:52:38.848Z,14.27
2023-01-31T22:55:32.124Z,15.95
2023-01-31T22:58:20.271Z,18.25
2023-01-31T23:01:23.057Z,17.50
2023-01-31T23:07:00.975Z,18.00
2023-01-31T23:09:51.221Z,22.33
2023-01-31T23:12:43.060Z,19.65
2023-01-31T23:15:33.974Z,23.00
2023-01-31T23:18:21.292Z,17.73
2023-01-31T23:21:18.041Z,24.63
2023-01-31T23:24:08.204Z,22.52
2023-01-31T23:26:58.451Z,25.90
2023-01-31T23:29:46.004Z,20.27
2023-01-31T23:32:42.979Z,20.77
2023-01-31T23:35:30.627Z,23.65
2023-01-31T23:38:17.907Z,26.38
2023-01-31T23:41:05.457Z,23.00
2023-01-31T23:43:55.223Z,21.30
2023-01-31T23:46:42.414Z,24.92
2023-01-31T23:49:31.787Z,25.85
2023-01-31T23:52:18.983Z,29.98
2023-01-31T23:55:07.185Z,24.25
2023-01-31T23:57:56.284Z,20.88
